sensor_id;sensor_type;location;lat;lon;timestamp;temperature;humidity
7666;DHT22;3875;46.562;4.898;2023-01-08T00:00:48;12.00;84.50
7666;DHT22;3875;46.562;4.898;2023-01-08T00:03:14;12.00;84.90
7666;DHT22;3875;46.562;4.898;2023-01-08T00:05:40;12.00;85.10
7666;DHT22;3875;46.562;4.898;2023-01-08T00:08:05;12.00;85.50
7666;DHT22;3875;46.562;4.898;2023-01-08T00:10:34;12.00;86.00
7666;DHT22;3875;46.562;4.898;2023-01-08T00:12:59;12.00;86.30
7666;DHT22;3875;46.562;4.898;2023-01-08T00:15:25;11.90;86.50
7666;DHT22;3875;46.562;4.898;2023-01-08T00:17:51;11.90;86.90
7666;DHT22;3875;46.562;4.898;2023-01-08T00:20:16;11.80;87.00
7666;DHT22;3875;46.562;4.898;2023-01-08T00:22:42;11.80;87.30
7666;DHT22;3875;46.562;4.898;2023-01-08T00:25:08;11.80;87.50
7666;DHT22;3875;46.562;4.898;2023-01-08T00:27:34;11.70;87.60
7666;DHT22;3875;46.562;4.898;2023-01-08T00:29:59;11.70;88.00
7666;DHT22;3875;46.562;4.898;2023-01-08T00:32:25;11.60;88.30
7666;DHT22;3875;46.562;4.898;2023-01-08T00:34:51;11.60;88.80
7666;DHT22;3875;46.562;4.898;2023-01-08T00:37:19;11.60;89.20
7666;DHT22;3875;46.562;4.898;2023-01-08T00:39:45;11.50;89.50
7666;DHT22;3875;46.562;4.898;2023-01-08T00:42:11;11.40;89.90
7666;DHT22;3875;46.562;4.898;2023-01-08T00:44:37;11.40;90.10
7666;DHT22;3875;46.562;4.898;2023-01-08T00:47:02;11.40;90.50
7666;DHT22;3875;46.562;4.898;2023-01-08T00:49:28;11.30;90.50
7666;DHT22;3875;46.562;4.898;2023-01-08T00:51:54;11.30;90.70
7666;DHT22;3875;46.562;4.898;2023-01-08T00:54:20;11.30;90.80
7666;DHT22;3875;46.562;4.898;2023-01-08T00:56:45;11.30;91.20
7666;DHT22;3875;46.562;4.898;2023-01-08T00:59:11;11.30;91.40
7666;DHT22;3875;46.562;4.898;2023-01-08T01:01:37;11.20;91.80
7666;DHT22;3875;46.562;4.898;2023-01-08T01:04:03;11.20;92.00
7666;DHT22;3875;46.562;4.898;2023-01-08T01:06:28;11.10;92.20
7666;DHT22;3875;46.562;4.898;2023-01-08T01:08:54;11.10;92.40
7666;DHT22;3875;46.562;4.898;2023-01-08T01:11:26;11.10;92.50
7666;DHT22;3875;46.562;4.898;2023-01-08T01:13:54;11.10;92.60
7666;DHT22;3875;46.562;4.898;2023-01-08T01:16:20;11.10;92.90
7666;DHT22;3875;46.562;4.898;2023-01-08T01:18:47;11.10;93.10
7666;DHT22;3875;46.562;4.898;2023-01-08T01:21:26;11.10;93.30
7666;DHT22;3875;46.562;4.898;2023-01-08T01:23:53;11.10;93.20
7666;DHT22;3875;46.562;4.898;2023-01-08T01:26:20;11.00;93.60
7666;DHT22;3875;46.562;4.898;2023-01-08T01:28:48;11.00;93.60
7666;DHT22;3875;46.562;4.898;2023-01-08T01:31:14;11.00;93.70
7666;DHT22;3875;46.562;4.898;2023-01-08T01:33:40;11.00;93.80
7666;DHT22;3875;46.562;4.898;2023-01-08T01:36:07;10.90;93.90
7666;DHT22;3875;46.562;4.898;2023-01-08T01:38:33;10.90;94.00
7666;DHT22;3875;46.562;4.898;2023-01-08T01:40:59;10.90;94.10
7666;DHT22;3875;46.562;4.898;2023-01-08T01:43:57;10.90;94.20
7666;DHT22;3875;46.562;4.898;2023-01-08T01:48:55;10.90;94.40
7666;DHT22;3875;46.562;4.898;2023-01-08T01:51:21;10.90;94.50
7666;DHT22;3875;46.562;4.898;2023-01-08T01:53:49;10.80;94.60
7666;DHT22;3875;46.562;4.898;2023-01-08T01:56:15;10.80;94.80
7666;DHT22;3875;46.562;4.898;2023-01-08T01:58:41;10.80;94.80
7666;DHT22;3875;46.562;4.898;2023-01-08T02:01:07;10.80;95.10
7666;DHT22;3875;46.562;4.898;2023-01-08T02:03:36;10.80;95.20
7666;DHT22;3875;46.562;4.898;2023-01-08T02:06:06;10.70;95.20
7666;DHT22;3875;46.562;4.898;2023-01-08T02:09:13;10.70;95.30
7666;DHT22;3875;46.562;4.898;2023-01-08T02:15:03;10.80;95.30
7666;DHT22;3875;46.562;4.898;2023-01-08T02:28:27;10.70;95.40
7666;DHT22;3875;46.562;4.898;2023-01-08T02:30:53;10.70;95.50
7666;DHT22;3875;46.562;4.898;2023-01-08T02:33:22;10.70;95.60
7666;DHT22;3875;46.562;4.898;2023-01-08T02:42:10;10.70;95.80
7666;DHT22;3875;46.562;4.898;2023-01-08T02:46:58;10.70;95.90
7666;DHT22;3875;46.562;4.898;2023-01-08T02:49:29;10.70;95.90
7666;DHT22;3875;46.562;4.898;2023-01-08T02:51:56;10.70;95.80
7666;DHT22;3875;46.562;4.898;2023-01-08T02:54:28;10.70;95.80
7666;DHT22;3875;46.562;4.898;2023-01-08T02:56:59;10.70;95.90
7666;DHT22;3875;46.562;4.898;2023-01-08T02:59:30;10.70;96.00
7666;DHT22;3875;46.562;4.898;2023-01-08T03:01:56;10.70;96.00
7666;DHT22;3875;46.562;4.898;2023-01-08T03:04:23;10.70;96.00
7666;DHT22;3875;46.562;4.898;2023-01-08T03:06:50;10.60;96.10
7666;DHT22;3875;46.562;4.898;2023-01-08T03:09:16;10.60;96.20
7666;DHT22;3875;46.562;4.898;2023-01-08T03:14:45;10.60;96.40
7666;DHT22;3875;46.562;4.898;2023-01-08T03:17:13;10.60;96.40
7666;DHT22;3875;46.562;4.898;2023-01-08T03:19:52;10.50;96.70
7666;DHT22;3875;46.562;4.898;2023-01-08T03:22:19;10.50;96.80
7666;DHT22;3875;46.562;4.898;2023-01-08T03:24:50;10.50;96.80
7666;DHT22;3875;46.562;4.898;2023-01-08T03:27:22;10.50;96.80
7666;DHT22;3875;46.562;4.898;2023-01-08T03:29:51;10.50;96.80
7666;DHT22;3875;46.562;4.898;2023-01-08T03:32:18;10.60;96.70
7666;DHT22;3875;46.562;4.898;2023-01-08T03:34:46;10.60;96.70
7666;DHT22;3875;46.562;4.898;2023-01-08T03:37:15;10.60;96.70
7666;DHT22;3875;46.562;4.898;2023-01-08T03:40:06;10.60;96.70
7666;DHT22;3875;46.562;4.898;2023-01-08T03:42:34;10.60;96.70
7666;DHT22;3875;46.562;4.898;2023-01-08T03:45:00;10.60;96.70
7666;DHT22;3875;46.562;4.898;2023-01-08T03:47:28;10.60;96.60
7666;DHT22;3875;46.562;4.898;2023-01-08T03:49:56;10.60;96.60
7666;DHT22;3875;46.562;4.898;2023-01-08T03:52:27;10.60;96.70
7666;DHT22;3875;46.562;4.898;2023-01-08T03:54:54;10.60;96.70
7666;DHT22;3875;46.562;4.898;2023-01-08T03:57:20;10.60;96.80
7666;DHT22;3875;46.562;4.898;2023-01-08T03:59:46;10.60;96.90
7666;DHT22;3875;46.562;4.898;2023-01-08T04:02:12;10.60;96.90
7666;DHT22;3875;46.562;4.898;2023-01-08T04:04:38;10.60;97.00
7666;DHT22;3875;46.562;4.898;2023-01-08T04:07:04;10.60;97.00
7666;DHT22;3875;46.562;4.898;2023-01-08T04:09:30;10.60;97.10
7666;DHT22;3875;46.562;4.898;2023-01-08T04:11:55;10.40;97.80
7666;DHT22;3875;46.562;4.898;2023-01-08T04:14:21;10.20;98.60
7666;DHT22;3875;46.562;4.898;2023-01-08T04:16:47;10.10;98.60
7666;DHT22;3875;46.562;4.898;2023-01-08T04:19:13;10.10;98.60
7666;DHT22;3875;46.562;4.898;2023-01-08T04:21:39;10.00;98.60
7666;DHT22;3875;46.562;4.898;2023-01-08T04:24:05;9.90;98.60
7666;DHT22;3875;46.562;4.898;2023-01-08T04:26:31;9.80;98.60
7666;DHT22;3875;46.562;4.898;2023-01-08T04:28:57;9.80;98.60
7666;DHT22;3875;46.562;4.898;2023-01-08T04:31:23;9.70;98.60
7666;DHT22;3875;46.562;4.898;2023-01-08T04:33:49;9.70;98.60
7666;DHT22;3875;46.562;4.898;2023-01-08T04:36:14;9.60;98.60
7666;DHT22;3875;46.562;4.898;2023-01-08T04:38:40;9.70;98.60
7666;DHT22;3875;46.562;4.898;2023-01-08T04:41:06;9.70;98.60
7666;DHT22;3875;46.562;4.898;2023-01-08T04:43:32;9.70;98.60
7666;DHT22;3875;46.562;4.898;2023-01-08T04:45:59;9.60;98.60
7666;DHT22;3875;46.562;4.898;2023-01-08T04:48:25;9.60;98.60
7666;DHT22;3875;46.562;4.898;2023-01-08T04:50:51;9.60;98.60
7666;DHT22;3875;46.562;4.898;2023-01-08T04:53:17;9.60;98.50
7666;DHT22;3875;46.562;4.898;2023-01-08T04:55:42;9.60;98.60
7666;DHT22;3875;46.562;4.898;2023-01-08T04:58:08;9.60;98.60
7666;DHT22;3875;46.562;4.898;2023-01-08T05:00:34;9.60;98.60
7666;DHT22;3875;46.562;4.898;2023-01-08T05:03:00;9.60;98.40
7666;DHT22;3875;46.562;4.898;2023-01-08T05:05:26;9.60;98.20
7666;DHT22;3875;46.562;4.898;2023-01-08T05:07:51;9.60;97.90
7666;DHT22;3875;46.562;4.898;2023-01-08T05:10:17;9.60;98.00
7666;DHT22;3875;46.562;4.898;2023-01-08T05:12:43;9.60;98.10
7666;DHT22;3875;46.562;4.898;2023-01-08T05:15:09;9.70;98.00
7666;DHT22;3875;46.562;4.898;2023-01-08T05:17:34;9.60;97.80
7666;DHT22;3875;46.562;4.898;2023-01-08T05:20:00;9.70;97.90
7666;DHT22;3875;46.562;4.898;2023-01-08T05:22:26;9.60;97.80
7666;DHT22;3875;46.562;4.898;2023-01-08T05:24:51;9.70;97.70
7666;DHT22;3875;46.562;4.898;2023-01-08T05:27:18;9.70;97.80
7666;DHT22;3875;46.562;4.898;2023-01-08T05:29:44;9.70;97.50
7666;DHT22;3875;46.562;4.898;2023-01-08T05:32:17;9.70;97.30
7666;DHT22;3875;46.562;4.898;2023-01-08T05:34:43;9.70;97.30
7666;DHT22;3875;46.562;4.898;2023-01-08T05:37:09;9.70;97.10
7666;DHT22;3875;46.562;4.898;2023-01-08T05:39:35;9.70;97.30
7666;DHT22;3875;46.562;4.898;2023-01-08T05:42:02;9.70;97.30
7666;DHT22;3875;46.562;4.898;2023-01-08T05:44:28;9.70;97.10
7666;DHT22;3875;46.562;4.898;2023-01-08T05:46:53;9.70;97.10
7666;DHT22;3875;46.562;4.898;2023-01-08T05:49:19;9.70;97.00
7666;DHT22;3875;46.562;4.898;2023-01-08T05:51:48;9.70;97.10
7666;DHT22;3875;46.562;4.898;2023-01-08T05:54:14;9.70;97.10
7666;DHT22;3875;46.562;4.898;2023-01-08T05:56:40;9.70;97.10
7666;DHT22;3875;46.562;4.898;2023-01-08T05:59:12;9.70;97.00
7666;DHT22;3875;46.562;4.898;2023-01-08T06:01:38;9.70;97.10
7666;DHT22;3875;46.562;4.898;2023-01-08T06:04:04;9.70;97.10
7666;DHT22;3875;46.562;4.898;2023-01-08T06:06:30;9.70;97.10
7666;DHT22;3875;46.562;4.898;2023-01-08T06:08:56;9.60;97.10
7666;DHT22;3875;46.562;4.898;2023-01-08T06:11:21;9.70;97.00
7666;DHT22;3875;46.562;4.898;2023-01-08T06:13:47;9.70;97.00
7666;DHT22;3875;46.562;4.898;2023-01-08T06:16:12;9.70;97.00
7666;DHT22;3875;46.562;4.898;2023-01-08T06:18:38;9.70;97.00
7666;DHT22;3875;46.562;4.898;2023-01-08T06:21:04;9.70;97.00
7666;DHT22;3875;46.562;4.898;2023-01-08T06:23:31;9.80;96.90
7666;DHT22;3875;46.562;4.898;2023-01-08T06:25:58;9.80;96.90
7666;DHT22;3875;46.562;4.898;2023-01-08T06:28:25;9.80;96.80
7666;DHT22;3875;46.562;4.898;2023-01-08T06:30:51;9.90;96.70
7666;DHT22;3875;46.562;4.898;2023-01-08T06:33:17;9.90;96.60
7666;DHT22;3875;46.562;4.898;2023-01-08T06:35:43;9.90;96.60
7666;DHT22;3875;46.562;4.898;2023-01-08T06:38:09;9.90;96.60
7666;DHT22;3875;46.562;4.898;2023-01-08T06:40:35;9.90;96.60
7666;DHT22;3875;46.562;4.898;2023-01-08T06:43:02;9.90;96.50
7666;DHT22;3875;46.562;4.898;2023-01-08T06:45:28;9.90;96.50
7666;DHT22;3875;46.562;4.898;2023-01-08T06:47:53;9.90;96.50
7666;DHT22;3875;46.562;4.898;2023-01-08T06:50:19;9.90;96.60
7666;DHT22;3875;46.562;4.898;2023-01-08T06:52:51;9.90;96.50
7666;DHT22;3875;46.562;4.898;2023-01-08T06:55:19;9.90;96.60
7666;DHT22;3875;46.562;4.898;2023-01-08T06:57:44;9.90;96.60
7666;DHT22;3875;46.562;4.898;2023-01-08T07:00:10;9.80;96.60
7666;DHT22;3875;46.562;4.898;2023-01-08T07:02:36;9.80;96.60
7666;DHT22;3875;46.562;4.898;2023-01-08T07:05:02;9.80;96.70
7666;DHT22;3875;46.562;4.898;2023-01-08T07:07:28;9.80;96.80
7666;DHT22;3875;46.562;4.898;2023-01-08T07:09:53;9.80;96.90
7666;DHT22;3875;46.562;4.898;2023-01-08T07:12:19;9.90;96.90
7666;DHT22;3875;46.562;4.898;2023-01-08T07:14:45;9.90;96.80
7666;DHT22;3875;46.562;4.898;2023-01-08T07:17:10;9.90;96.90
7666;DHT22;3875;46.562;4.898;2023-01-08T07:19:36;9.90;97.00
7666;DHT22;3875;46.562;4.898;2023-01-08T07:22:02;9.90;97.00
7666;DHT22;3875;46.562;4.898;2023-01-08T07:24:28;9.90;97.00
7666;DHT22;3875;46.562;4.898;2023-01-08T07:26:53;9.90;97.00
7666;DHT22;3875;46.562;4.898;2023-01-08T07:29:19;9.90;97.00
7666;DHT22;3875;46.562;4.898;2023-01-08T07:31:45;10.00;97.00
7666;DHT22;3875;46.562;4.898;2023-01-08T07:34:10;10.00;97.00
7666;DHT22;3875;46.562;4.898;2023-01-08T07:36:36;10.00;96.90
7666;DHT22;3875;46.562;4.898;2023-01-08T07:39:02;10.00;96.90
7666;DHT22;3875;46.562;4.898;2023-01-08T07:41:28;10.00;96.90
7666;DHT22;3875;46.562;4.898;2023-01-08T07:43:53;10.00;97.00
7666;DHT22;3875;46.562;4.898;2023-01-08T07:46:19;10.00;96.90
7666;DHT22;3875;46.562;4.898;2023-01-08T07:48:45;9.90;97.00
7666;DHT22;3875;46.562;4.898;2023-01-08T07:51:10;10.00;97.00
7666;DHT22;3875;46.562;4.898;2023-01-08T07:53:36;10.00;97.00
7666;DHT22;3875;46.562;4.898;2023-01-08T07:56:04;10.00;96.90
7666;DHT22;3875;46.562;4.898;2023-01-08T07:58:30;10.00;97.10
7666;DHT22;3875;46.562;4.898;2023-01-08T08:00:56;10.00;97.00
7666;DHT22;3875;46.562;4.898;2023-01-08T08:03:23;10.00;97.20
7666;DHT22;3875;46.562;4.898;2023-01-08T08:05:49;10.00;97.20
7666;DHT22;3875;46.562;4.898;2023-01-08T08:08:15;9.90;97.20
7666;DHT22;3875;46.562;4.898;2023-01-08T08:10:41;9.90;97.20
7666;DHT22;3875;46.562;4.898;2023-01-08T08:13:07;9.90;97.30
7666;DHT22;3875;46.562;4.898;2023-01-08T08:15:35;9.90;97.40
7666;DHT22;3875;46.562;4.898;2023-01-08T08:18:01;9.90;97.40
7666;DHT22;3875;46.562;4.898;2023-01-08T08:20:27;9.80;97.50
7666;DHT22;3875;46.562;4.898;2023-01-08T08:23:00;9.90;97.60
7666;DHT22;3875;46.562;4.898;2023-01-08T08:25:26;9.90;97.60
7666;DHT22;3875;46.562;4.898;2023-01-08T08:27:51;9.90;97.60
7666;DHT22;3875;46.562;4.898;2023-01-08T08:30:20;10.00;97.70
7666;DHT22;3875;46.562;4.898;2023-01-08T08:32:49;10.00;97.60
7666;DHT22;3875;46.562;4.898;2023-01-08T08:35:15;10.00;97.50
7666;DHT22;3875;46.562;4.898;2023-01-08T08:37:41;10.10;97.50
7666;DHT22;3875;46.562;4.898;2023-01-08T08:40:07;10.10;97.50
7666;DHT22;3875;46.562;4.898;2023-01-08T08:42:33;10.20;97.50
7666;DHT22;3875;46.562;4.898;2023-01-08T08:44:58;10.20;97.40
7666;DHT22;3875;46.562;4.898;2023-01-08T08:47:24;10.20;97.40
7666;DHT22;3875;46.562;4.898;2023-01-08T08:49:50;10.20;97.50
7666;DHT22;3875;46.562;4.898;2023-01-08T08:52:16;10.30;97.60
7666;DHT22;3875;46.562;4.898;2023-01-08T08:54:41;10.30;97.60
7666;DHT22;3875;46.562;4.898;2023-01-08T08:57:08;10.30;97.60
7666;DHT22;3875;46.562;4.898;2023-01-08T08:59:34;10.40;97.70
7666;DHT22;3875;46.562;4.898;2023-01-08T09:02:01;10.40;97.60
7666;DHT22;3875;46.562;4.898;2023-01-08T09:04:30;10.40;97.60
7666;DHT22;3875;46.562;4.898;2023-01-08T09:06:56;10.50;97.60
7666;DHT22;3875;46.562;4.898;2023-01-08T09:09:22;10.50;97.50
7666;DHT22;3875;46.562;4.898;2023-01-08T09:11:48;10.50;97.50
7666;DHT22;3875;46.562;4.898;2023-01-08T09:14:14;10.50;97.30
7666;DHT22;3875;46.562;4.898;2023-01-08T09:16:39;10.60;97.30
7666;DHT22;3875;46.562;4.898;2023-01-08T09:19:05;10.60;97.20
7666;DHT22;3875;46.562;4.898;2023-01-08T09:21:32;10.60;97.10
7666;DHT22;3875;46.562;4.898;2023-01-08T09:23:57;10.60;97.10
7666;DHT22;3875;46.562;4.898;2023-01-08T09:26:23;10.70;97.30
7666;DHT22;3875;46.562;4.898;2023-01-08T09:28:49;10.80;97.20
7666;DHT22;3875;46.562;4.898;2023-01-08T09:31:14;10.80;97.10
7666;DHT22;3875;46.562;4.898;2023-01-08T09:33:40;10.90;96.80
7666;DHT22;3875;46.562;4.898;2023-01-08T09:36:10;11.00;96.90
7666;DHT22;3875;46.562;4.898;2023-01-08T09:38:36;11.00;96.70
7666;DHT22;3875;46.562;4.898;2023-01-08T09:41:09;11.00;96.60
7666;DHT22;3875;46.562;4.898;2023-01-08T09:43:37;11.00;96.60
7666;DHT22;3875;46.562;4.898;2023-01-08T09:46:05;11.10;96.50
7666;DHT22;3875;46.562;4.898;2023-01-08T09:48:37;11.20;96.80
7666;DHT22;3875;46.562;4.898;2023-01-08T09:51:06;11.30;96.70
7666;DHT22;3875;46.562;4.898;2023-01-08T09:53:33;11.50;96.60
7666;DHT22;3875;46.562;4.898;2023-01-08T09:56:01;11.60;96.20
7666;DHT22;3875;46.562;4.898;2023-01-08T10:01:00;12.00;95.40
7666;DHT22;3875;46.562;4.898;2023-01-08T10:03:31;12.10;95.30
7666;DHT22;3875;46.562;4.898;2023-01-08T10:06:10;12.20;95.20
7666;DHT22;3875;46.562;4.898;2023-01-08T10:08:37;12.30;94.80
7666;DHT22;3875;46.562;4.898;2023-01-08T10:11:04;12.40;94.40
7666;DHT22;3875;46.562;4.898;2023-01-08T10:13:31;12.50;94.40
7666;DHT22;3875;46.562;4.898;2023-01-08T10:15:57;12.50;94.10
7666;DHT22;3875;46.562;4.898;2023-01-08T10:18:25;12.60;94.40
7666;DHT22;3875;46.562;4.898;2023-01-08T10:20:51;12.70;94.20
7666;DHT22;3875;46.562;4.898;2023-01-08T10:23:19;12.70;94.00
7666;DHT22;3875;46.562;4.898;2023-01-08T10:25:57;12.80;94.20
7666;DHT22;3875;46.562;4.898;2023-01-08T10:28:24;13.00;94.00
7666;DHT22;3875;46.562;4.898;2023-01-08T10:30:52;13.00;93.10
7666;DHT22;3875;46.562;4.898;2023-01-08T10:33:25;12.90;92.60
7666;DHT22;3875;46.562;4.898;2023-01-08T10:36:06;12.70;92.70
7666;DHT22;3875;46.562;4.898;2023-01-08T10:38:38;12.50;93.30
7666;DHT22;3875;46.562;4.898;2023-01-08T10:41:09;12.30;93.70
7666;DHT22;3875;46.562;4.898;2023-01-08T10:43:59;12.20;94.10
7666;DHT22;3875;46.562;4.898;2023-01-08T10:46:41;12.20;94.40
7666;DHT22;3875;46.562;4.898;2023-01-08T10:49:39;12.10;94.50
7666;DHT22;3875;46.562;4.898;2023-01-08T10:52:32;12.00;94.70
7666;DHT22;3875;46.562;4.898;2023-01-08T10:55:27;12.00;94.90
7666;DHT22;3875;46.562;4.898;2023-01-08T10:57:59;12.00;95.10
7666;DHT22;3875;46.562;4.898;2023-01-08T11:00:28;12.00;95.10
7666;DHT22;3875;46.562;4.898;2023-01-08T11:02:56;12.00;95.00
7666;DHT22;3875;46.562;4.898;2023-01-08T11:05:31;12.00;94.70
7666;DHT22;3875;46.562;4.898;2023-01-08T11:07:58;12.00;94.70
7666;DHT22;3875;46.562;4.898;2023-01-08T11:10:26;12.10;94.70
7666;DHT22;3875;46.562;4.898;2023-01-08T11:13:04;12.10;94.60
7666;DHT22;3875;46.562;4.898;2023-01-08T11:15:32;12.20;94.50
7666;DHT22;3875;46.562;4.898;2023-01-08T11:20:35;12.10;94.40
7666;DHT22;3875;46.562;4.898;2023-01-08T11:25:53;12.20;94.50
7666;DHT22;3875;46.562;4.898;2023-01-08T11:34:07;12.30;94.30
7666;DHT22;3875;46.562;4.898;2023-01-08T11:36:45;12.30;94.20
7666;DHT22;3875;46.562;4.898;2023-01-08T11:39:11;12.30;94.30
7666;DHT22;3875;46.562;4.898;2023-01-08T11:49:46;12.60;94.00
7666;DHT22;3875;46.562;4.898;2023-01-08T11:53:26;12.60;93.70
7666;DHT22;3875;46.562;4.898;2023-01-08T11:55:52;12.60;93.70
7666;DHT22;3875;46.562;4.898;2023-01-08T11:58:29;12.60;93.50
7666;DHT22;3875;46.562;4.898;2023-01-08T12:03:36;12.60;93.70
7666;DHT22;3875;46.562;4.898;2023-01-08T12:11:38;12.70;93.70
7666;DHT22;3875;46.562;4.898;2023-01-08T12:20:25;12.80;93.70
7666;DHT22;3875;46.562;4.898;2023-01-08T12:23:28;12.80;93.50
7666;DHT22;3875;46.562;4.898;2023-01-08T12:29:05;12.70;93.80
7666;DHT22;3875;46.562;4.898;2023-01-08T12:34:06;12.70;93.90
7666;DHT22;3875;46.562;4.898;2023-01-08T12:36:47;12.70;93.90
7666;DHT22;3875;46.562;4.898;2023-01-08T12:39:27;12.70;93.90
7666;DHT22;3875;46.562;4.898;2023-01-08T12:42:10;12.60;93.90
7666;DHT22;3875;46.562;4.898;2023-01-08T12:44:39;12.50;94.10
7666;DHT22;3875;46.562;4.898;2023-01-08T12:47:05;12.50;94.00
7666;DHT22;3875;46.562;4.898;2023-01-08T12:49:58;12.40;94.20
7666;DHT22;3875;46.562;4.898;2023-01-08T12:52:35;12.40;94.30
7666;DHT22;3875;46.562;4.898;2023-01-08T12:58:13;12.40;94.30
7666;DHT22;3875;46.562;4.898;2023-01-08T13:03:36;12.40;94.40
7666;DHT22;3875;46.562;4.898;2023-01-08T13:06:14;12.30;94.50
7666;DHT22;3875;46.562;4.898;2023-01-08T13:08:46;12.30;94.50
7666;DHT22;3875;46.562;4.898;2023-01-08T13:11:48;12.30;94.50
7666;DHT22;3875;46.562;4.898;2023-01-08T13:14:11;12.30;94.60
7666;DHT22;3875;46.562;4.898;2023-01-08T13:16:44;12.30;94.60
7666;DHT22;3875;46.562;4.898;2023-01-08T13:19:28;12.40;94.50
7666;DHT22;3875;46.562;4.898;2023-01-08T13:21:59;12.40;94.50
7666;DHT22;3875;46.562;4.898;2023-01-08T13:24:30;12.40;94.60
7666;DHT22;3875;46.562;4.898;2023-01-08T13:27:07;12.40;94.60
7666;DHT22;3875;46.562;4.898;2023-01-08T13:29:39;12.40;94.30
7666;DHT22;3875;46.562;4.898;2023-01-08T13:32:41;12.40;94.40
7666;DHT22;3875;46.562;4.898;2023-01-08T13:37:49;12.40;94.40
7666;DHT22;3875;46.562;4.898;2023-01-08T13:46:13;12.50;94.50
7666;DHT22;3875;46.562;4.898;2023-01-08T13:54:17;12.50;94.40
7666;DHT22;3875;46.562;4.898;2023-01-08T13:56:45;12.50;94.40
7666;DHT22;3875;46.562;4.898;2023-01-08T14:00:13;12.40;94.40
7666;DHT22;3875;46.562;4.898;2023-01-08T14:02:41;12.50;94.40
7666;DHT22;3875;46.562;4.898;2023-01-08T14:07:50;12.40;94.50
7666;DHT22;3875;46.562;4.898;2023-01-08T14:10:16;12.40;94.50
7666;DHT22;3875;46.562;4.898;2023-01-08T14:12:43;12.40;94.60
7666;DHT22;3875;46.562;4.898;2023-01-08T14:15:16;12.40;94.70
7666;DHT22;3875;46.562;4.898;2023-01-08T14:17:42;12.50;94.80
7666;DHT22;3875;46.562;4.898;2023-01-08T14:20:10;12.50;94.90
7666;DHT22;3875;46.562;4.898;2023-01-08T14:22:36;12.50;94.90
7666;DHT22;3875;46.562;4.898;2023-01-08T14:25:04;12.40;94.90
7666;DHT22;3875;46.562;4.898;2023-01-08T14:27:31;12.40;95.10
7666;DHT22;3875;46.562;4.898;2023-01-08T14:29:57;12.40;95.20
7666;DHT22;3875;46.562;4.898;2023-01-08T14:32:29;12.40;95.20
7666;DHT22;3875;46.562;4.898;2023-01-08T14:34:56;12.50;95.20
7666;DHT22;3875;46.562;4.898;2023-01-08T14:37:23;12.50;95.20
7666;DHT22;3875;46.562;4.898;2023-01-08T14:39:49;12.40;95.20
7666;DHT22;3875;46.562;4.898;2023-01-08T14:45:20;12.50;95.20
7666;DHT22;3875;46.562;4.898;2023-01-08T14:47:49;12.40;95.30
7666;DHT22;3875;46.562;4.898;2023-01-08T14:50:26;12.40;95.30
7666;DHT22;3875;46.562;4.898;2023-01-08T14:53:02;12.50;95.40
7666;DHT22;3875;46.562;4.898;2023-01-08T14:55:29;12.50;95.40
7666;DHT22;3875;46.562;4.898;2023-01-08T14:57:56;12.40;95.40
7666;DHT22;3875;46.562;4.898;2023-01-08T15:00:29;12.40;95.50
7666;DHT22;3875;46.562;4.898;2023-01-08T15:02:56;12.40;95.60
7666;DHT22;3875;46.562;4.898;2023-01-08T15:05:28;12.30;95.70
7666;DHT22;3875;46.562;4.898;2023-01-08T15:08:19;12.30;95.90
7666;DHT22;3875;46.562;4.898;2023-01-08T15:11:03;12.30;96.00
7666;DHT22;3875;46.562;4.898;2023-01-08T15:13:35;12.30;96.10
7666;DHT22;3875;46.562;4.898;2023-01-08T15:19:05;12.20;96.20
7666;DHT22;3875;46.562;4.898;2023-01-08T15:21:32;12.20;96.30
7666;DHT22;3875;46.562;4.898;2023-01-08T15:24:00;12.20;96.40
7666;DHT22;3875;46.562;4.898;2023-01-08T15:26:27;12.10;96.40
7666;DHT22;3875;46.562;4.898;2023-01-08T15:29:14;12.10;96.60
7666;DHT22;3875;46.562;4.898;2023-01-08T15:34:09;12.00;96.80
7666;DHT22;3875;46.562;4.898;2023-01-08T15:36:44;12.00;96.90
7666;DHT22;3875;46.562;4.898;2023-01-08T15:39:13;12.00;96.90
7666;DHT22;3875;46.562;4.898;2023-01-08T15:41:40;12.00;97.00
7666;DHT22;3875;46.562;4.898;2023-01-08T15:44:27;12.00;97.00
7666;DHT22;3875;46.562;4.898;2023-01-08T15:46:53;12.00;97.00
7666;DHT22;3875;46.562;4.898;2023-01-08T15:49:22;12.00;97.10
7666;DHT22;3875;46.562;4.898;2023-01-08T15:51:50;12.00;97.10
7666;DHT22;3875;46.562;4.898;2023-01-08T15:54:16;12.00;97.10
7666;DHT22;3875;46.562;4.898;2023-01-08T15:56:43;12.00;97.20
7666;DHT22;3875;46.562;4.898;2023-01-08T15:59:09;12.00;97.20
7666;DHT22;3875;46.562;4.898;2023-01-08T16:01:36;12.00;97.10
7666;DHT22;3875;46.562;4.898;2023-01-08T16:04:02;12.00;97.20
7666;DHT22;3875;46.562;4.898;2023-01-08T16:06:28;11.90;97.30
7666;DHT22;3875;46.562;4.898;2023-01-08T16:08:54;11.90;97.40
7666;DHT22;3875;46.562;4.898;2023-01-08T16:11:24;11.90;97.40
7666;DHT22;3875;46.562;4.898;2023-01-08T16:13:50;11.90;97.50
7666;DHT22;3875;46.562;4.898;2023-01-08T16:16:16;11.90;97.50
7666;DHT22;3875;46.562;4.898;2023-01-08T16:18:41;11.90;97.40
7666;DHT22;3875;46.562;4.898;2023-01-08T16:21:08;11.90;97.30
7666;DHT22;3875;46.562;4.898;2023-01-08T16:23:35;11.90;97.30
7666;DHT22;3875;46.562;4.898;2023-01-08T16:26:14;11.80;97.30
7666;DHT22;3875;46.562;4.898;2023-01-08T16:28:40;11.80;97.30
7666;DHT22;3875;46.562;4.898;2023-01-08T16:31:06;11.80;97.40
7666;DHT22;3875;46.562;4.898;2023-01-08T16:33:32;11.80;97.40
7666;DHT22;3875;46.562;4.898;2023-01-08T16:36:03;11.70;97.50
7666;DHT22;3875;46.562;4.898;2023-01-08T16:38:29;11.70;97.60
7666;DHT22;3875;46.562;4.898;2023-01-08T16:40:56;11.70;97.60
7666;DHT22;3875;46.562;4.898;2023-01-08T16:43:23;11.70;97.60
7666;DHT22;3875;46.562;4.898;2023-01-08T16:45:49;11.70;97.50
7666;DHT22;3875;46.562;4.898;2023-01-08T16:48:14;11.70;97.60
7666;DHT22;3875;46.562;4.898;2023-01-08T16:50:41;11.70;97.70
7666;DHT22;3875;46.562;4.898;2023-01-08T16:53:08;11.60;97.70
7666;DHT22;3875;46.562;4.898;2023-01-08T16:55:38;11.60;97.80
7666;DHT22;3875;46.562;4.898;2023-01-08T16:58:04;11.60;97.80
7666;DHT22;3875;46.562;4.898;2023-01-08T17:00:30;11.60;97.80
7666;DHT22;3875;46.562;4.898;2023-01-08T17:02:56;11.60;97.80
7666;DHT22;3875;46.562;4.898;2023-01-08T17:05:22;11.60;97.80
7666;DHT22;3875;46.562;4.898;2023-01-08T17:07:52;11.50;97.80
7666;DHT22;3875;46.562;4.898;2023-01-08T17:10:20;11.50;98.00
7666;DHT22;3875;46.562;4.898;2023-01-08T17:12:45;11.50;98.10
7666;DHT22;3875;46.562;4.898;2023-01-08T17:15:11;11.50;98.20
7666;DHT22;3875;46.562;4.898;2023-01-08T17:17:37;11.40;98.30
7666;DHT22;3875;46.562;4.898;2023-01-08T17:20:03;11.40;98.40
7666;DHT22;3875;46.562;4.898;2023-01-08T17:22:29;11.30;98.60
7666;DHT22;3875;46.562;4.898;2023-01-08T17:24:55;11.40;98.60
7666;DHT22;3875;46.562;4.898;2023-01-08T17:27:20;11.30;98.60
7666;DHT22;3875;46.562;4.898;2023-01-08T17:29:46;11.30;98.60
7666;DHT22;3875;46.562;4.898;2023-01-08T17:32:12;11.30;98.60
7666;DHT22;3875;46.562;4.898;2023-01-08T17:34:38;11.30;98.60
7666;DHT22;3875;46.562;4.898;2023-01-08T17:37:04;11.30;98.60
7666;DHT22;3875;46.562;4.898;2023-01-08T17:39:30;11.30;98.60
7666;DHT22;3875;46.562;4.898;2023-01-08T17:41:56;11.30;98.60
7666;DHT22;3875;46.562;4.898;2023-01-08T17:44:40;11.20;98.60
7666;DHT22;3875;46.562;4.898;2023-01-08T17:47:05;11.20;98.60
7666;DHT22;3875;46.562;4.898;2023-01-08T17:49:31;11.20;98.60
7666;DHT22;3875;46.562;4.898;2023-01-08T17:51:57;11.20;98.60
7666;DHT22;3875;46.562;4.898;2023-01-08T17:54:23;11.20;98.60
7666;DHT22;3875;46.562;4.898;2023-01-08T17:56:49;11.20;98.60